sensor_id;sensor_type;location;lat;lon;timestamp;temperature;humidity
19258;DHT22;9763;48.780;9.212;2022-12-29T00:03:07;12.20;90.70
19258;DHT22;9763;48.780;9.212;2022-12-29T00:06:31;12.20;90.70
19258;DHT22;9763;48.780;9.212;2022-12-29T00:09:55;12.20;90.60
19258;DHT22;9763;48.780;9.212;2022-12-29T00:13:20;12.30;90.70
19258;DHT22;9763;48.780;9.212;2022-12-29T00:17:01;12.30;90.50
19258;DHT22;9763;48.780;9.212;2022-12-29T00:20:25;12.30;90.50
19258;DHT22;9763;48.780;9.212;2022-12-29T00:24:15;12.40;90.50
19258;DHT22;9763;48.780;9.212;2022-12-29T00:27:58;12.40;90.10
19258;DHT22;9763;48.780;9.212;2022-12-29T00:31:40;12.50;90.80
19258;DHT22;9763;48.780;9.212;2022-12-29T00:35:26;12.50;90.80
19258;DHT22;9763;48.780;9.212;2022-12-29T00:38:55;12.50;90.40
19258;DHT22;9763;48.780;9.212;2022-12-29T00:42:39;12.50;90.30
19258;DHT22;9763;48.780;9.212;2022-12-29T00:46:20;12.60;90.70
19258;DHT22;9763;48.780;9.212;2022-12-29T00:49:45;12.60;90.90
19258;DHT22;9763;48.780;9.212;2022-12-29T00:53:09;12.60;90.60
19258;DHT22;9763;48.780;9.212;2022-12-29T00:56:33;12.70;91.00
19258;DHT22;9763;48.780;9.212;2022-12-29T00:59:56;12.70;91.30
19258;DHT22;9763;48.780;9.212;2022-12-29T01:03:20;12.80;91.20
19258;DHT22;9763;48.780;9.212;2022-12-29T01:06:45;12.80;90.80
19258;DHT22;9763;48.780;9.212;2022-12-29T01:10:10;12.90;90.90
19258;DHT22;9763;48.780;9.212;2022-12-29T01:13:34;12.90;90.70
19258;DHT22;9763;48.780;9.212;2022-12-29T01:16:59;11.80;90.00
19258;DHT22;9763;48.780;9.212;2022-12-29T01:20:23;12.90;90.50
19258;DHT22;9763;48.780;9.212;2022-12-29T01:23:48;12.90;90.30
19258;DHT22;9763;48.780;9.212;2022-12-29T01:27:11;13.00;90.20
19258;DHT22;9763;48.780;9.212;2022-12-29T01:30:36;13.00;90.10
19258;DHT22;9763;48.780;9.212;2022-12-29T01:33:59;13.00;90.20
19258;DHT22;9763;48.780;9.212;2022-12-29T01:37:23;13.00;90.20
19258;DHT22;9763;48.780;9.212;2022-12-29T01:40:48;13.00;90.10
19258;DHT22;9763;48.780;9.212;2022-12-29T01:48:19;13.00;88.20
19258;DHT22;9763;48.780;9.212;2022-12-29T01:51:45;13.00;89.80
19258;DHT22;9763;48.780;9.212;2022-12-29T01:55:13;13.00;89.30
19258;DHT22;9763;48.780;9.212;2022-12-29T01:58:44;13.00;89.50
19258;DHT22;9763;48.780;9.212;2022-12-29T02:02:11;13.00;89.10
19258;DHT22;9763;48.780;9.212;2022-12-29T02:05:40;13.00;89.80
19258;DHT22;9763;48.780;9.212;2022-12-29T02:09:09;13.00;89.00
19258;DHT22;9763;48.780;9.212;2022-12-29T02:12:33;13.00;89.50
19258;DHT22;9763;48.780;9.212;2022-12-29T02:16:07;13.00;89.10
19258;DHT22;9763;48.780;9.212;2022-12-29T02:19:58;13.00;88.40
19258;DHT22;9763;48.780;9.212;2022-12-29T02:27:57;12.90;87.10
19258;DHT22;9763;48.780;9.212;2022-12-29T02:31:49;13.00;88.30
19258;DHT22;9763;48.780;9.212;2022-12-29T02:35:25;13.00;89.30
19258;DHT22;9763;48.780;9.212;2022-12-29T02:39:04;13.00;89.20
19258;DHT22;9763;48.780;9.212;2022-12-29T02:42:38;13.00;89.10
19258;DHT22;9763;48.780;9.212;2022-12-29T02:46:17;13.00;89.50
19258;DHT22;9763;48.780;9.212;2022-12-29T02:49:57;13.10;89.70
19258;DHT22;9763;48.780;9.212;2022-12-29T02:53:26;13.10;89.30
19258;DHT22;9763;48.780;9.212;2022-12-29T02:57:12;13.10;89.10
19258;DHT22;9763;48.780;9.212;2022-12-29T03:00:48;16.70;91.20
19258;DHT22;9763;48.780;9.212;2022-12-29T03:04:29;13.10;89.40
19258;DHT22;9763;48.780;9.212;2022-12-29T03:08:06;13.10;89.50
19258;DHT22;9763;48.780;9.212;2022-12-29T03:11:48;13.10;89.70
19258;DHT22;9763;48.780;9.212;2022-12-29T03:15:41;13.10;89.10
19258;DHT22;9763;48.780;9.212;2022-12-29T03:19:26;13.10;88.40
19258;DHT22;9763;48.780;9.212;2022-12-29T03:22:59;13.10;88.90
19258;DHT22;9763;48.780;9.212;2022-12-29T03:26:29;13.10;88.40
19258;DHT22;9763;48.780;9.212;2022-12-29T03:29:57;13.10;88.90
19258;DHT22;9763;48.780;9.212;2022-12-29T03:33:27;13.10;89.20
19258;DHT22;9763;48.780;9.212;2022-12-29T03:37:00;13.10;89.40
19258;DHT22;9763;48.780;9.212;2022-12-29T03:40:29;13.20;90.00
19258;DHT22;9763;48.780;9.212;2022-12-29T03:43:55;13.30;87.20
19258;DHT22;9763;48.780;9.212;2022-12-29T03:50:43;13.30;87.70
19258;DHT22;9763;48.780;9.212;2022-12-29T04:01:00;13.40;89.90
19258;DHT22;9763;48.780;9.212;2022-12-29T04:04:26;13.40;89.50
19258;DHT22;9763;48.780;9.212;2022-12-29T04:07:50;13.40;88.00
19258;DHT22;9763;48.780;9.212;2022-12-29T04:11:13;13.40;90.00
19258;DHT22;9763;48.780;9.212;2022-12-29T04:14:39;13.50;89.60
19258;DHT22;9763;48.780;9.212;2022-12-29T04:18:04;13.40;89.20
19258;DHT22;9763;48.780;9.212;2022-12-29T04:24:53;13.40;87.10
19258;DHT22;9763;48.780;9.212;2022-12-29T04:28:17;13.30;87.60
19258;DHT22;9763;48.780;9.212;2022-12-29T04:31:40;13.30;88.10
19258;DHT22;9763;48.780;9.212;2022-12-29T04:35:07;13.30;87.30
19258;DHT22;9763;48.780;9.212;2022-12-29T04:38:31;13.30;88.30
19258;DHT22;9763;48.780;9.212;2022-12-29T04:45:22;13.30;88.40
19258;DHT22;9763;48.780;9.212;2022-12-29T04:49:08;13.20;88.20
19258;DHT22;9763;48.780;9.212;2022-12-29T04:52:56;13.20;88.20
19258;DHT22;9763;48.780;9.212;2022-12-29T05:03:07;13.10;87.90
19258;DHT22;9763;48.780;9.212;2022-12-29T05:06:34;13.10;88.50
19258;DHT22;9763;48.780;9.212;2022-12-29T05:09:59;13.10;87.90
19258;DHT22;9763;48.780;9.212;2022-12-29T05:13:22;13.30;87.80
19258;DHT22;9763;48.780;9.212;2022-12-29T05:16:46;13.20;88.40
19258;DHT22;9763;48.780;9.212;2022-12-29T05:20:12;13.20;89.10
19258;DHT22;9763;48.780;9.212;2022-12-29T05:23:36;13.10;88.80
19258;DHT22;9763;48.780;9.212;2022-12-29T05:27:02;13.20;89.10
19258;DHT22;9763;48.780;9.212;2022-12-29T05:44:50;13.40;86.60
19258;DHT22;9763;48.780;9.212;2022-12-29T06:02:36;13.30;87.50
19258;DHT22;9763;48.780;9.212;2022-12-29T06:06:00;13.30;86.10
19258;DHT22;9763;48.780;9.212;2022-12-29T06:09:24;13.30;88.40
19258;DHT22;9763;48.780;9.212;2022-12-29T06:16:14;13.40;86.70
19258;DHT22;9763;48.780;9.212;2022-12-29T06:19:39;13.30;88.70
19258;DHT22;9763;48.780;9.212;2022-12-29T06:23:04;13.30;89.60
19258;DHT22;9763;48.780;9.212;2022-12-29T06:26:28;13.20;89.70
19258;DHT22;9763;48.780;9.212;2022-12-29T06:29:51;13.30;89.60
19258;DHT22;9763;48.780;9.212;2022-12-29T06:33:15;13.40;89.40
19258;DHT22;9763;48.780;9.212;2022-12-29T06:36:40;13.20;89.10
19258;DHT22;9763;48.780;9.212;2022-12-29T06:40:05;13.30;88.70
19258;DHT22;9763;48.780;9.212;2022-12-29T06:43:49;13.30;87.50
19258;DHT22;9763;48.780;9.212;2022-12-29T06:50:47;13.30;86.30
19258;DHT22;9763;48.780;9.212;2022-12-29T07:01:00;13.20;84.90
19258;DHT22;9763;48.780;9.212;2022-12-29T07:04:24;13.20;87.20
19258;DHT22;9763;48.780;9.212;2022-12-29T07:07:47;13.10;87.60
19258;DHT22;9763;48.780;9.212;2022-12-29T07:11:12;13.10;88.30
19258;DHT22;9763;48.780;9.212;2022-12-29T07:14:36;13.00;88.50
19258;DHT22;9763;48.780;9.212;2022-12-29T07:18:04;13.00;87.90
19258;DHT22;9763;48.780;9.212;2022-12-29T07:21:28;13.00;88.40
19258;DHT22;9763;48.780;9.212;2022-12-29T07:24:51;13.00;88.10
19258;DHT22;9763;48.780;9.212;2022-12-29T07:28:16;13.00;88.10
19258;DHT22;9763;48.780;9.212;2022-12-29T07:31:39;13.00;87.50
19258;DHT22;9763;48.780;9.212;2022-12-29T07:35:03;13.00;88.10
19258;DHT22;9763;48.780;9.212;2022-12-29T07:38:28;12.90;88.10
19258;DHT22;9763;48.780;9.212;2022-12-29T07:41:51;13.20;88.80
19258;DHT22;9763;48.780;9.212;2022-12-29T07:45:22;13.00;88.50
19258;DHT22;9763;48.780;9.212;2022-12-29T07:48:58;13.00;88.40
19258;DHT22;9763;48.780;9.212;2022-12-29T07:52:21;13.00;89.00
19258;DHT22;9763;48.780;9.212;2022-12-29T07:55:45;13.00;88.20
19258;DHT22;9763;48.780;9.212;2022-12-29T07:59:09;13.10;89.10
19258;DHT22;9763;48.780;9.212;2022-12-29T08:02:35;13.10;89.60
19258;DHT22;9763;48.780;9.212;2022-12-29T08:05:59;13.20;90.00
19258;DHT22;9763;48.780;9.212;2022-12-29T08:09:23;13.20;89.90
19258;DHT22;9763;48.780;9.212;2022-12-29T08:12:46;13.30;90.00
19258;DHT22;9763;48.780;9.212;2022-12-29T08:16:10;13.40;90.10
19258;DHT22;9763;48.780;9.212;2022-12-29T08:19:35;13.40;90.20
19258;DHT22;9763;48.780;9.212;2022-12-29T08:22:58;13.40;89.80
19258;DHT22;9763;48.780;9.212;2022-12-29T08:26:22;13.50;90.00
19258;DHT22;9763;48.780;9.212;2022-12-29T08:29:46;13.50;90.10
19258;DHT22;9763;48.780;9.212;2022-12-29T08:33:09;13.60;89.70
19258;DHT22;9763;48.780;9.212;2022-12-29T08:36:34;13.60;90.00
19258;DHT22;9763;48.780;9.212;2022-12-29T08:39:58;13.70;90.00
19258;DHT22;9763;48.780;9.212;2022-12-29T08:43:25;13.70;90.10
19258;DHT22;9763;48.780;9.212;2022-12-29T08:46:49;13.80;90.30
19258;DHT22;9763;48.780;9.212;2022-12-29T08:50:13;13.80;90.10
19258;DHT22;9763;48.780;9.212;2022-12-29T08:53:38;13.90;90.70
19258;DHT22;9763;48.780;9.212;2022-12-29T08:57:02;13.90;90.00
19258;DHT22;9763;48.780;9.212;2022-12-29T09:00:35;13.90;90.00
19258;DHT22;9763;48.780;9.212;2022-12-29T09:03:58;14.00;90.10
19258;DHT22;9763;48.780;9.212;2022-12-29T09:07:39;14.00;90.10
19258;DHT22;9763;48.780;9.212;2022-12-29T09:11:08;14.00;89.90
19258;DHT22;9763;48.780;9.212;2022-12-29T09:14:33;14.00;89.10
19258;DHT22;9763;48.780;9.212;2022-12-29T09:17:57;14.00;89.80
19258;DHT22;9763;48.780;9.212;2022-12-29T09:21:20;14.10;89.90
19258;DHT22;9763;48.780;9.212;2022-12-29T09:28:57;14.20;89.80
19258;DHT22;9763;48.780;9.212;2022-12-29T09:32:20;14.20;89.90
19258;DHT22;9763;48.780;9.212;2022-12-29T09:35:51;14.40;90.50
19258;DHT22;9763;48.780;9.212;2022-12-29T09:39:15;14.30;90.00
19258;DHT22;9763;48.780;9.212;2022-12-29T09:42:45;14.50;90.30
19258;DHT22;9763;48.780;9.212;2022-12-29T09:46:24;14.40;90.10
19258;DHT22;9763;48.780;9.212;2022-12-29T09:49:53;14.50;90.20
19258;DHT22;9763;48.780;9.212;2022-12-29T09:53:24;14.60;90.30
19258;DHT22;9763;48.780;9.212;2022-12-29T09:56:52;14.60;90.40
19258;DHT22;9763;48.780;9.212;2022-12-29T10:00:19;14.70;90.90
19258;DHT22;9763;48.780;9.212;2022-12-29T10:03:48;14.80;90.90
19258;DHT22;9763;48.780;9.212;2022-12-29T10:07:20;14.90;91.20
19258;DHT22;9763;48.780;9.212;2022-12-29T10:10:55;15.00;91.00
19258;DHT22;9763;48.780;9.212;2022-12-29T10:14:33;15.10;90.50
19258;DHT22;9763;48.780;9.212;2022-12-29T10:18:14;15.10;90.10
19258;DHT22;9763;48.780;9.212;2022-12-29T10:21:59;15.20;90.30
19258;DHT22;9763;48.780;9.212;2022-12-29T10:25:37;15.20;89.50
19258;DHT22;9763;48.780;9.212;2022-12-29T10:29:04;15.20;90.30
19258;DHT22;9763;48.780;9.212;2022-12-29T10:32:32;15.20;90.30
19258;DHT22;9763;48.780;9.212;2022-12-29T10:36:04;15.30;90.30
19258;DHT22;9763;48.780;9.212;2022-12-29T10:39:42;15.30;90.10
19258;DHT22;9763;48.780;9.212;2022-12-29T10:43:18;15.30;90.30
19258;DHT22;9763;48.780;9.212;2022-12-29T10:46:55;15.30;89.80
19258;DHT22;9763;48.780;9.212;2022-12-29T10:50:24;15.40;88.80
19258;DHT22;9763;48.780;9.212;2022-12-29T10:53:52;15.50;90.60
19258;DHT22;9763;48.780;9.212;2022-12-29T10:57:25;15.70;91.40
19258;DHT22;9763;48.780;9.212;2022-12-29T11:00:53;16.00;95.00
19258;DHT22;9763;48.780;9.212;2022-12-29T11:04:29;16.50;99.40
19258;DHT22;9763;48.780;9.212;2022-12-29T11:08:09;17.20;99.50
19258;DHT22;9763;48.780;9.212;2022-12-29T11:11:35;17.80;97.30
19258;DHT22;9763;48.780;9.212;2022-12-29T11:15:12;18.10;94.20
19258;DHT22;9763;48.780;9.212;2022-12-29T11:18:39;18.20;90.30
19258;DHT22;9763;48.780;9.212;2022-12-29T11:22:14;18.10;90.00
19258;DHT22;9763;48.780;9.212;2022-12-29T11:25:43;18.00;87.20
19258;DHT22;9763;48.780;9.212;2022-12-29T11:29:20;17.80;86.60
19258;DHT22;9763;48.780;9.212;2022-12-29T11:32:51;17.30;84.70
19258;DHT22;9763;48.780;9.212;2022-12-29T11:36:19;17.30;85.30
19258;DHT22;9763;48.780;9.212;2022-12-29T11:39:50;17.10;84.80
19258;DHT22;9763;48.780;9.212;2022-12-29T11:43:23;17.10;86.20
19258;DHT22;9763;48.780;9.212;2022-12-29T11:46:53;16.80;84.30
19258;DHT22;9763;48.780;9.212;2022-12-29T11:50:21;16.60;82.70
19258;DHT22;9763;48.780;9.212;2022-12-29T11:53:51;16.40;83.30
19258;DHT22;9763;48.780;9.212;2022-12-29T11:57:19;16.30;83.40
19258;DHT22;9763;48.780;9.212;2022-12-29T12:00:49;16.20;84.30
19258;DHT22;9763;48.780;9.212;2022-12-29T12:04:16;16.10;85.10
19258;DHT22;9763;48.780;9.212;2022-12-29T12:07:46;15.90;84.00
19258;DHT22;9763;48.780;9.212;2022-12-29T12:11:15;15.80;85.30
19258;DHT22;9763;48.780;9.212;2022-12-29T12:14:50;15.70;85.70
19258;DHT22;9763;48.780;9.212;2022-12-29T12:18:39;15.60;86.30
19258;DHT22;9763;48.780;9.212;2022-12-29T12:22:10;15.50;86.30
19258;DHT22;9763;48.780;9.212;2022-12-29T12:25:54;15.50;86.10
19258;DHT22;9763;48.780;9.212;2022-12-29T12:29:25;15.40;86.40
19258;DHT22;9763;48.780;9.212;2022-12-29T12:33:00;15.40;86.10
19258;DHT22;9763;48.780;9.212;2022-12-29T12:36:47;15.30;85.80
19258;DHT22;9763;48.780;9.212;2022-12-29T12:40:34;15.30;86.80
19258;DHT22;9763;48.780;9.212;2022-12-29T12:44:27;15.30;87.20
19258;DHT22;9763;48.780;9.212;2022-12-29T12:48:04;15.40;88.20
19258;DHT22;9763;48.780;9.212;2022-12-29T12:51:46;15.50;87.80
19258;DHT22;9763;48.780;9.212;2022-12-29T12:55:44;15.30;87.00
19258;DHT22;9763;48.780;9.212;2022-12-29T12:59:31;15.30;87.90
19258;DHT22;9763;48.780;9.212;2022-12-29T13:03:08;15.30;87.60
19258;DHT22;9763;48.780;9.212;2022-12-29T13:06:42;15.30;88.80
19258;DHT22;9763;48.780;9.212;2022-12-29T13:10:25;15.30;89.40
19258;DHT22;9763;48.780;9.212;2022-12-29T13:14:08;15.40;88.90
19258;DHT22;9763;48.780;9.212;2022-12-29T13:17:50;15.40;89.30
19258;DHT22;9763;48.780;9.212;2022-12-29T13:21:29;15.40;89.30
19258;DHT22;9763;48.780;9.212;2022-12-29T13:25:18;15.40;89.10
19258;DHT22;9763;48.780;9.212;2022-12-29T13:28:56;15.40;88.70
19258;DHT22;9763;48.780;9.212;2022-12-29T13:32:35;15.40;89.20
19258;DHT22;9763;48.780;9.212;2022-12-29T13:36:16;15.40;89.30
19258;DHT22;9763;48.780;9.212;2022-12-29T13:39:49;15.40;89.60
19258;DHT22;9763;48.780;9.212;2022-12-29T13:43:18;15.40;89.60
19258;DHT22;9763;48.780;9.212;2022-12-29T13:46:45;15.30;89.40
19258;DHT22;9763;48.780;9.212;2022-12-29T13:50:14;15.30;89.50
19258;DHT22;9763;48.780;9.212;2022-12-29T13:53:54;15.30;89.50
19258;DHT22;9763;48.780;9.212;2022-12-29T13:57:35;15.50;88.90
19258;DHT22;9763;48.780;9.212;2022-12-29T14:01:10;15.30;89.10
19258;DHT22;9763;48.780;9.212;2022-12-29T14:04:56;15.30;88.90
19258;DHT22;9763;48.780;9.212;2022-12-29T14:08:22;15.20;87.90
19258;DHT22;9763;48.780;9.212;2022-12-29T14:11:47;15.20;89.00
19258;DHT22;9763;48.780;9.212;2022-12-29T14:15:21;15.20;89.80
19258;DHT22;9763;48.780;9.212;2022-12-29T14:18:46;15.20;89.70
19258;DHT22;9763;48.780;9.212;2022-12-29T14:22:11;15.20;90.30
19258;DHT22;9763;48.780;9.212;2022-12-29T14:25:56;15.40;90.00
19258;DHT22;9763;48.780;9.212;2022-12-29T14:29:45;15.20;87.90
19258;DHT22;9763;48.780;9.212;2022-12-29T14:33:13;15.10;87.30
19258;DHT22;9763;48.780;9.212;2022-12-29T14:36:39;15.20;88.10
19258;DHT22;9763;48.780;9.212;2022-12-29T14:40:06;15.00;88.50
19258;DHT22;9763;48.780;9.212;2022-12-29T14:43:39;15.00;88.10
19258;DHT22;9763;48.780;9.212;2022-12-29T14:47:07;14.90;88.40
19258;DHT22;9763;48.780;9.212;2022-12-29T14:50:38;14.90;87.50
19258;DHT22;9763;48.780;9.212;2022-12-29T14:58:13;14.70;87.00
19258;DHT22;9763;48.780;9.212;2022-12-29T15:01:44;14.70;87.90
19258;DHT22;9763;48.780;9.212;2022-12-29T15:05:27;14.70;88.50
19258;DHT22;9763;48.780;9.212;2022-12-29T15:08:59;14.60;87.30
19258;DHT22;9763;48.780;9.212;2022-12-29T15:12:32;14.70;88.10
19258;DHT22;9763;48.780;9.212;2022-12-29T15:16:01;14.60;87.70
19258;DHT22;9763;48.780;9.212;2022-12-29T15:19:25;14.50;88.10
19258;DHT22;9763;48.780;9.212;2022-12-29T15:22:54;14.50;88.10
19258;DHT22;9763;48.780;9.212;2022-12-29T15:26:20;14.50;87.60
19258;DHT22;9763;48.780;9.212;2022-12-29T15:29:46;14.40;88.10
19258;DHT22;9763;48.780;9.212;2022-12-29T15:33:18;14.40;88.30
19258;DHT22;9763;48.780;9.212;2022-12-29T15:36:42;14.40;87.60
19258;DHT22;9763;48.780;9.212;2022-12-29T15:40:22;14.30;88.40
19258;DHT22;9763;48.780;9.212;2022-12-29T15:43:55;14.30;87.20
19258;DHT22;9763;48.780;9.212;2022-12-29T15:47:30;14.30;87.90
19258;DHT22;9763;48.780;9.212;2022-12-29T15:50:57;14.30;88.20
19258;DHT22;9763;48.780;9.212;2022-12-29T15:54:23;14.30;88.80
19258;DHT22;9763;48.780;9.212;2022-12-29T15:57:49;14.30;89.10
19258;DHT22;9763;48.780;9.212;2022-12-29T16:01:20;14.30;88.90
19258;DHT22;9763;48.780;9.212;2022-12-29T16:04:49;14.30;88.80
19258;DHT22;9763;48.780;9.212;2022-12-29T16:08:38;14.30;88.30
19258;DHT22;9763;48.780;9.212;2022-12-29T16:12:15;14.50;87.20
19258;DHT22;9763;48.780;9.212;2022-12-29T16:15:47;14.20;86.20
19258;DHT22;9763;48.780;9.212;2022-12-29T16:19:14;14.00;86.20
19258;DHT22;9763;48.780;9.212;2022-12-29T16:22:48;13.90;85.60
19258;DHT22;9763;48.780;9.212;2022-12-29T16:26:16;13.80;85.80
19258;DHT22;9763;48.780;9.212;2022-12-29T16:29:40;13.90;86.50
19258;DHT22;9763;48.780;9.212;2022-12-29T16:33:05;13.60;86.70
19258;DHT22;9763;48.780;9.212;2022-12-29T16:36:32;13.60;86.90
19258;DHT22;9763;48.780;9.212;2022-12-29T16:40:24;13.50;87.20
19258;DHT22;9763;48.780;9.212;2022-12-29T16:44:15;13.50;86.40
19258;DHT22;9763;48.780;9.212;2022-12-29T16:47:40;13.40;86.60
19258;DHT22;9763;48.780;9.212;2022-12-29T16:51:12;13.40;87.70
19258;DHT22;9763;48.780;9.212;2022-12-29T16:54:39;13.40;87.60
19258;DHT22;9763;48.780;9.212;2022-12-29T16:58:03;13.40;88.00
19258;DHT22;9763;48.780;9.212;2022-12-29T17:01:28;13.40;87.80
19258;DHT22;9763;48.780;9.212;2022-12-29T17:04:52;13.40;87.90
19258;DHT22;9763;48.780;9.212;2022-12-29T17:08:20;13.30;88.10
19258;DHT22;9763;48.780;9.212;2022-12-29T17:11:46;13.30;87.80
19258;DHT22;9763;48.780;9.212;2022-12-29T17:15:29;13.20;88.10
19258;DHT22;9763;48.780;9.212;2022-12-29T17:18:56;13.20;88.20
19258;DHT22;9763;48.780;9.212;2022-12-29T17:22:22;13.10;89.10
19258;DHT22;9763;48.780;9.212;2022-12-29T17:25:49;13.10;88.10
19258;DHT22;9763;48.780;9.212;2022-12-29T17:29:18;13.00;87.90
19258;DHT22;9763;48.780;9.212;2022-12-29T17:32:51;13.00;88.00
19258;DHT22;9763;48.780;9.212;2022-12-29T17:36:16;13.00;88.50
19258;DHT22;9763;48.780;9.212;2022-12-29T17:39:39;12.90;88.80
19258;DHT22;9763;48.780;9.212;2022-12-29T17:43:04;12.90;89.00
19258;DHT22;9763;48.780;9.212;2022-12-29T17:46:28;12.80;89.00
19258;DHT22;9763;48.780;9.212;2022-12-29T17:49:51;12.80;89.30
19258;DHT22;9763;48.780;9.212;2022-12-29T17:53:17;12.80;89.30
19258;DHT22;9763;48.780;9.212;2022-12-29T17:56:43;12.80;89.50
19258;DHT22;9763;48.780;9.212;2022-12-29T18:00:14;12.70;89.80
19258;DHT22;9763;48.780;9.212;2022-12-29T18:03:39;12.70;89.60
19258;DHT22;9763;48.780;9.212;2022-12-29T18:07:07;12.70;89.80
19258;DHT22;9763;48.780;9.212;2022-12-29T18:10:33;12.70;90.00
19258;DHT22;9763;48.780;9.212;2022-12-29T18:13:57;12.60;90.20
19258;DHT22;9763;48.780;9.212;2022-12-29T18:17:22;12.60;90.40
19258;DHT22;9763;48.780;9.212;2022-12-29T18:20:47;12.60;90.50
19258;DHT22;9763;48.780;9.212;2022-12-29T18:24:13;12.60;90.70
19258;DHT22;9763;48.780;9.212;2022-12-29T18:27:37;12.60;90.90
19258;DHT22;9763;48.780;9.212;2022-12-29T18:31:00;12.60;90.80
19258;DHT22;9763;48.780;9.212;2022-12-29T18:34:26;12.60;90.50
19258;DHT22;9763;48.780;9.212;2022-12-29T18:37:49;12.50;90.40
19258;DHT22;9763;48.780;9.212;2022-12-29T18:41:16;12.40;90.40
19258;DHT22;9763;48.780;9.212;2022-12-29T18:44:40;12.40;90.20
19258;DHT22;9763;48.780;9.212;2022-12-29T18:48:04;12.30;90.50
19258;DHT22;9763;48.780;9.212;2022-12-29T18:51:29;12.20;90.70
19258;DHT22;9763;48.780;9.212;2022-12-29T18:54:52;12.20;90.70
19258;DHT22;9763;48.780;9.212;2022-12-29T18:58:16;12.20;91.00
19258;DHT22;9763;48.780;9.212;2022-12-29T19:01:40;12.20;91.20
19258;DHT22;9763;48.780;9.212;2022-12-29T19:05:05;12.20;91.30
19258;DHT22;9763;48.780;9.212;2022-12-29T19:08:42;12.20;91.40
19258;DHT22;9763;48.780;9.212;2022-12-29T19:12:07;12.20;91.20
19258;DHT22;9763;48.780;9.212;2022-12-29T19:15:37;12.10;91.40
19258;DHT22;9763;48.780;9.212;2022-12-29T19:19:01;12.10;91.30
19258;DHT22;9763;48.780;9.212;2022-12-29T19:22:30;12.10;91.30
19258;DHT22;9763;48.780;9.212;2022-12-29T19:25:55;12.30;91.20
19258;DHT22;9763;48.780;9.212;2022-12-29T19:29:19;12.10;91.00
19258;DHT22;9763;48.780;9.212;2022-12-29T19:32:43;12.10;91.10
19258;DHT22;9763;48.780;9.212;2022-12-29T19:36:08;12.00;91.00
19258;DHT22;9763;48.780;9.212;2022-12-29T19:39:36;12.00;91.20
19258;DHT22;9763;48.780;9.212;2022-12-29T19:43:01;12.00;91.10
19258;DHT22;9763;48.780;9.212;2022-12-29T19:46:25;12.00;91.00
19258;DHT22;9763;48.780;9.212;2022-12-29T19:49:49;11.90;91.00
19258;DHT22;9763;48.780;9.212;2022-12-29T19:53:13;11.90;91.00
19258;DHT22;9763;48.780;9.212;2022-12-29T19:56:37;11.90;91.00
19258;DHT22;9763;48.780;9.212;2022-12-29T20:00:06;11.90;90.90
19258;DHT22;9763;48.780;9.212;2022-12-29T20:03:34;11.80;90.90
19258;DHT22;9763;48.780;9.212;2022-12-29T20:06:59;11.80;91.00
19258;DHT22;9763;48.780;9.212;2022-12-29T20:10:23;11.80;90.90
19258;DHT22;9763;48.780;9.212;2022-12-29T20:13:46;11.80;90.80
19258;DHT22;9763;48.780;9.212;2022-12-29T20:17:13;11.80;90.70
19258;DHT22;9763;48.780;9.212;2022-12-29T20:21:01;11.70;90.50
19258;DHT22;9763;48.780;9.212;2022-12-29T20:24:25;11.70;90.50
19258;DHT22;9763;48.780;9.212;2022-12-29T20:27:49;11.70;90.50
19258;DHT22;9763;48.780;9.212;2022-12-29T20:31:16;11.60;90.50
19258;DHT22;9763;48.780;9.212;2022-12-29T20:34:43;11.60;90.50
19258;DHT22;9763;48.780;9.212;2022-12-29T20:38:08;11.50;90.40
19258;DHT22;9763;48.780;9.212;2022-12-29T20:41:32;11.50;90.40
19258;DHT22;9763;48.780;9.212;2022-12-29T20:44:56;11.40;90.40
19258;DHT22;9763;48.780;9.212;2022-12-29T20:48:19;11.40;90.50
19258;DHT22;9763;48.780;9.212;2022-12-29T20:51:44;11.30;90.50
19258;DHT22;9763;48.780;9.212;2022-12-29T20:55:27;11.30;90.50
19258;DHT22;9763;48.780;9.212;2022-12-29T20:58:51;11.20;90.50
19258;DHT22;9763;48.780;9.212;2022-12-29T21:02:36;11.20;90.50
19258;DHT22;9763;48.780;9.212;2022-12-29T21:06:00;11.20;90.60
19258;DHT22;9763;48.780;9.212;2022-12-29T21:09:25;11.10;90.30
19258;DHT22;9763;48.780;9.212;2022-12-29T21:12:48;11.10;90.60
19258;DHT22;9763;48.780;9.212;2022-12-29T21:16:12;11.00;90.50
19258;DHT22;9763;48.780;9.212;2022-12-29T21:19:37;10.90;90.70
19258;DHT22;9763;48.780;9.212;2022-12-29T21:23:02;10.90;90.80
19258;DHT22;9763;48.780;9.212;2022-12-29T21:26:27;10.90;90.70
19258;DHT22;9763;48.780;9.212;2022-12-29T21:29:50;10.80;90.60
19258;DHT22;9763;48.780;9.212;2022-12-29T21:33:14;10.80;90.60
19258;DHT22;9763;48.780;9.212;2022-12-29T21:36:37;10.80;90.60
19258;DHT22;9763;48.780;9.212;2022-12-29T21:40:01;10.70;90.60
19258;DHT22;9763;48.780;9.212;2022-12-29T21:43:27;10.70;90.50
19258;DHT22;9763;48.780;9.212;2022-12-29T21:46:50;10.60;90.40
19258;DHT22;9763;48.780;9.212;2022-12-29T21:50:14;10.60;90.30
19258;DHT22;9763;48.780;9.212;2022-12-29T21:53:39;10.50;90.30
19258;DHT22;9763;48.780;9.212;2022-12-29T21:57:04;10.50;90.40
19258;DHT22;9763;48.780;9.212;2022-12-29T22:00:30;10.40;90.50
19258;DHT22;9763;48.780;9.212;2022-12-29T22:04:12;10.40;90.50
19258;DHT22;9763;48.780;9.212;2022-12-29T22:07:54;10.40;90.50
19258;DHT22;9763;48.780;9.212;2022-12-29T22:11:35;10.40;90.80
19258;DHT22;9763;48.780;9.212;2022-12-29T22:15:16;10.30;90.40
19258;DHT22;9763;48.780;9.212;2022-12-29T22:18:41;10.40;90.40
19258;DHT22;9763;48.780;9.212;2022-12-29T22:22:04;10.30;90.50
19258;DHT22;9763;48.780;9.212;2022-12-29T22:25:28;10.30;90.70
19258;DHT22;9763;48.780;9.212;2022-12-29T22:28:52;10.30;90.70
19258;DHT22;9763;48.780;9.212;2022-12-29T22:32:16;10.30;91.00
19258;DHT22;9763;48.780;9.212;2022-12-29T22:35:41;10.30;91.10
19258;DHT22;9763;48.780;9.212;2022-12-29T22:39:04;10.30;90.90
19258;DHT22;9763;48.780;9.212;2022-12-29T22:42:28;10.30;91.20
19258;DHT22;9763;48.780;9.212;2022-12-29T22:45:52;10.30;91.30
19258;DHT22;9763;48.780;9.212;2022-12-29T22:49:15;10.30;91.40
19258;DHT22;9763;48.780;9.212;2022-12-29T22:52:40;10.40;91.50
19258;DHT22;9763;48.780;9.212;2022-12-29T22:56:05;10.40;91.40
19258;DHT22;9763;48.780;9.212;2022-12-29T22:59:30;10.40;91.40
19258;DHT22;9763;48.780;9.212;2022-12-29T23:02:55;10.40;91.50
19258;DHT22;9763;48.780;9.212;2022-12-29T23:06:19;10.50;91.50
19258;DHT22;9763;48.780;9.212;2022-12-29T23:09:44;10.50;91.50
19258;DHT22;9763;48.780;9.212;2022-12-29T23:13:08;10.50;91.20
19258;DHT22;9763;48.780;9.212;2022-12-29T23:16:31;10.50;91.30
19258;DHT22;9763;48.780;9.212;2022-12-29T23:19:55;10.50;91.30
19258;DHT22;9763;48.780;9.212;2022-12-29T23:23:18;10.50;91.30
19258;DHT22;9763;48.780;9.212;2022-12-29T23:26:57;10.50;91.20
19258;DHT22;9763;48.780;9.212;2022-12-29T23:30:21;10.50;91.10
19258;DHT22;9763;48.780;9.212;2022-12-29T23:33:45;10.60;91.20
19258;DHT22;9763;48.780;9.212;2022-12-29T23:37:08;10.60;91.30
19258;DHT22;9763;48.780;9.212;2022-12-29T23:40:32;10.60;91.30
19258;DHT22;9763;48.780;9.212;2022-12-29T23:43:57;10.60;91.30
19258;DHT22;9763;48.780;9.212;2022-12-29T23:47:20;10.60;91.20